sensor_id;sensor_type;location;lat;lon;timestamp;P1;durP1;ratioP1;P2;durP2;ratioP2
42140;SDS011;27809;51.864;5.646;2023-08-12T00:02:12;12.88;;;7.07;;
42140;SDS011;27809;51.864;5.646;2023-08-12T00:04:37;10.23;;;6.65;;
42140;SDS011;27809;51.864;5.646;2023-08-12T00:07:03;13.68;;;5.80;;
42140;SDS011;27809;51.864;5.646;2023-08-12T00:09:28;15.82;;;7.82;;
42140;SDS011;27809;51.864;5.646;2023-08-12T00:11:54;14.00;;;8.20;;
42140;SDS011;27809;51.864;5.646;2023-08-12T00:14:19;11.68;;;7.18;;
42140;SDS011;27809;51.864;5.646;2023-08-12T00:16:45;16.05;;;8.07;;
42140;SDS011;27809;51.864;5.646;2023-08-12T00:19:10;10.18;;;6.72;;
42140;SDS011;27809;51.864;5.646;2023-08-12T00:21:36;12.45;;;7.10;;
42140;SDS011;27809;51.864;5.646;2023-08-12T00:24:01;8.95;;;6.53;;
42140;SDS011;27809;51.864;5.646;2023-08-12T00:26:27;10.77;;;6.38;;
42140;SDS011;27809;51.864;5.646;2023-08-12T00:28:52;9.90;;;6.45;;
42140;SDS011;27809;51.864;5.646;2023-08-12T00:31:18;10.38;;;6.70;;
42140;SDS011;27809;51.864;5.646;2023-08-12T00:33:43;13.73;;;6.63;;
42140;SDS011;27809;51.864;5.646;2023-08-12T00:36:09;12.90;;;7.45;;
42140;SDS011;27809;51.864;5.646;2023-08-12T00:38:35;10.48;;;6.53;;
42140;SDS011;27809;51.864;5.646;2023-08-12T00:41:00;13.40;;;7.30;;
42140;SDS011;27809;51.864;5.646;2023-08-12T00:43:26;13.82;;;8.05;;
42140;SDS011;27809;51.864;5.646;2023-08-12T00:45:51;15.82;;;6.47;;
42140;SDS011;27809;51.864;5.646;2023-08-12T00:48:17;14.30;;;7.65;;
42140;SDS011;27809;51.864;5.646;2023-08-12T00:50:43;12.05;;;6.85;;
42140;SDS011;27809;51.864;5.646;2023-08-12T00:53:09;11.07;;;7.32;;
42140;SDS011;27809;51.864;5.646;2023-08-12T00:55:37;11.90;;;7.28;;
42140;SDS011;27809;51.864;5.646;2023-08-12T00:58:03;12.88;;;7.43;;
42140;SDS011;27809;51.864;5.646;2023-08-12T01:00:29;13.00;;;8.18;;
42140;SDS011;27809;51.864;5.646;2023-08-12T01:02:56;14.02;;;9.05;;
42140;SDS011;27809;51.864;5.646;2023-08-12T01:05:22;9.13;;;6.57;;
42140;SDS011;27809;51.864;5.646;2023-08-12T01:07:48;17.42;;;8.25;;
42140;SDS011;27809;51.864;5.646;2023-08-12T01:10:14;13.50;;;8.07;;
42140;SDS011;27809;51.864;5.646;2023-08-12T01:12:44;15.82;;;7.88;;
42140;SDS011;27809;51.864;5.646;2023-08-12T01:15:15;18.55;;;7.45;;
42140;SDS011;27809;51.864;5.646;2023-08-12T01:17:46;14.70;;;8.70;;
42140;SDS011;27809;51.864;5.646;2023-08-12T01:20:17;17.17;;;8.30;;
42140;SDS011;27809;51.864;5.646;2023-08-12T01:22:49;13.90;;;7.53;;
42140;SDS011;27809;51.864;5.646;2023-08-12T01:25:21;12.88;;;7.47;;
42140;SDS011;27809;51.864;5.646;2023-08-12T01:27:46;26.35;;;10.68;;
42140;SDS011;27809;51.864;5.646;2023-08-12T01:30:12;16.50;;;8.73;;
42140;SDS011;27809;51.864;5.646;2023-08-12T01:32:57;17.35;;;9.07;;
42140;SDS011;27809;51.864;5.646;2023-08-12T01:35:40;18.05;;;9.38;;
42140;SDS011;27809;51.864;5.646;2023-08-12T01:38:11;19.83;;;11.00;;
42140;SDS011;27809;51.864;5.646;2023-08-12T01:40:38;17.77;;;10.40;;
42140;SDS011;27809;51.864;5.646;2023-08-12T01:43:05;22.85;;;10.00;;
42140;SDS011;27809;51.864;5.646;2023-08-12T01:45:33;21.17;;;10.95;;
42140;SDS011;27809;51.864;5.646;2023-08-12T01:47:59;22.73;;;12.18;;
42140;SDS011;27809;51.864;5.646;2023-08-12T01:50:24;17.05;;;10.40;;
42140;SDS011;27809;51.864;5.646;2023-08-12T01:52:50;21.15;;;10.82;;
42140;SDS011;27809;51.864;5.646;2023-08-12T01:55:16;22.38;;;11.32;;
42140;SDS011;27809;51.864;5.646;2023-08-12T01:57:41;17.63;;;10.15;;
42140;SDS011;27809;51.864;5.646;2023-08-12T02:00:07;24.98;;;13.13;;
42140;SDS011;27809;51.864;5.646;2023-08-12T02:02:33;22.85;;;12.35;;
42140;SDS011;27809;51.864;5.646;2023-08-12T02:04:59;20.30;;;12.52;;
42140;SDS011;27809;51.864;5.646;2023-08-12T02:07:24;26.33;;;12.88;;
42140;SDS011;27809;51.864;5.646;2023-08-12T02:09:50;33.22;;;13.50;;
42140;SDS011;27809;51.864;5.646;2023-08-12T02:12:15;20.55;;;12.25;;
42140;SDS011;27809;51.864;5.646;2023-08-12T02:14:41;25.80;;;12.45;;
42140;SDS011;27809;51.864;5.646;2023-08-12T02:17:06;22.13;;;11.93;;
42140;SDS011;27809;51.864;5.646;2023-08-12T02:19:32;26.92;;;14.57;;
42140;SDS011;27809;51.864;5.646;2023-08-12T02:21:58;26.30;;;13.93;;
42140;SDS011;27809;51.864;5.646;2023-08-12T02:24:24;25.40;;;12.88;;
42140;SDS011;27809;51.864;5.646;2023-08-12T02:26:50;34.58;;;15.30;;
42140;SDS011;27809;51.864;5.646;2023-08-12T02:29:16;24.60;;;13.00;;
42140;SDS011;27809;51.864;5.646;2023-08-12T02:31:41;23.92;;;11.38;;
42140;SDS011;27809;51.864;5.646;2023-08-12T02:34:07;24.75;;;12.77;;
42140;SDS011;27809;51.864;5.646;2023-08-12T02:36:32;25.02;;;13.40;;
42140;SDS011;27809;51.864;5.646;2023-08-12T02:38:58;21.30;;;11.98;;
42140;SDS011;27809;51.864;5.646;2023-08-12T02:41:23;25.02;;;12.73;;
42140;SDS011;27809;51.864;5.646;2023-08-12T02:43:49;27.48;;;12.65;;
42140;SDS011;27809;51.864;5.646;2023-08-12T02:46:14;21.17;;;13.95;;
42140;SDS011;27809;51.864;5.646;2023-08-12T02:48:40;19.33;;;12.32;;
42140;SDS011;27809;51.864;5.646;2023-08-12T02:51:06;26.30;;;14.70;;
42140;SDS011;27809;51.864;5.646;2023-08-12T02:53:32;24.60;;;13.30;;
42140;SDS011;27809;51.864;5.646;2023-08-12T02:55:57;27.52;;;14.88;;
42140;SDS011;27809;51.864;5.646;2023-08-12T02:58:23;25.10;;;14.27;;
42140;SDS011;27809;51.864;5.646;2023-08-12T03:00:48;25.70;;;13.00;;
42140;SDS011;27809;51.864;5.646;2023-08-12T03:03:14;24.35;;;13.55;;
42140;SDS011;27809;51.864;5.646;2023-08-12T03:05:39;27.73;;;13.65;;
42140;SDS011;27809;51.864;5.646;2023-08-12T03:08:05;23.98;;;14.48;;
42140;SDS011;27809;51.864;5.646;2023-08-12T03:10:33;25.15;;;14.85;;
42140;SDS011;27809;51.864;5.646;2023-08-12T03:12:59;27.60;;;14.25;;
42140;SDS011;27809;51.864;5.646;2023-08-12T03:15:24;24.98;;;14.07;;
42140;SDS011;27809;51.864;5.646;2023-08-12T03:17:50;25.80;;;14.43;;
42140;SDS011;27809;51.864;5.646;2023-08-12T03:20:16;23.38;;;13.55;;
42140;SDS011;27809;51.864;5.646;2023-08-12T03:22:41;26.38;;;13.65;;
42140;SDS011;27809;51.864;5.646;2023-08-12T03:25:07;24.52;;;14.60;;
42140;SDS011;27809;51.864;5.646;2023-08-12T03:27:33;25.58;;;13.63;;
42140;SDS011;27809;51.864;5.646;2023-08-12T03:29:58;25.20;;;13.30;;
42140;SDS011;27809;51.864;5.646;2023-08-12T03:32:24;27.20;;;14.05;;
42140;SDS011;27809;51.864;5.646;2023-08-12T03:34:50;23.90;;;13.18;;
42140;SDS011;27809;51.864;5.646;2023-08-12T03:37:16;25.00;;;13.50;;
42140;SDS011;27809;51.864;5.646;2023-08-12T03:39:42;30.90;;;14.95;;
42140;SDS011;27809;51.864;5.646;2023-08-12T03:42:07;21.10;;;12.68;;
42140;SDS011;27809;51.864;5.646;2023-08-12T03:44:33;27.58;;;13.95;;
42140;SDS011;27809;51.864;5.646;2023-08-12T03:46:58;22.88;;;13.30;;
42140;SDS011;27809;51.864;5.646;2023-08-12T03:49:24;28.23;;;13.65;;
42140;SDS011;27809;51.864;5.646;2023-08-12T03:51:49;24.45;;;12.05;;
42140;SDS011;27809;51.864;5.646;2023-08-12T03:54:15;26.70;;;14.40;;
42140;SDS011;27809;51.864;5.646;2023-08-12T03:56:40;26.52;;;14.13;;
42140;SDS011;27809;51.864;5.646;2023-08-12T03:59:06;26.42;;;13.10;;
42140;SDS011;27809;51.864;5.646;2023-08-12T04:01:31;21.17;;;12.13;;
42140;SDS011;27809;51.864;5.646;2023-08-12T04:03:57;24.38;;;12.98;;
42140;SDS011;27809;51.864;5.646;2023-08-12T04:06:22;20.00;;;12.32;;
42140;SDS011;27809;51.864;5.646;2023-08-12T04:08:48;20.58;;;11.70;;
42140;SDS011;27809;51.864;5.646;2023-08-12T04:11:13;25.08;;;13.10;;
42140;SDS011;27809;51.864;5.646;2023-08-12T04:13:39;18.33;;;10.65;;
42140;SDS011;27809;51.864;5.646;2023-08-12T04:16:04;20.77;;;12.90;;
42140;SDS011;27809;51.864;5.646;2023-08-12T04:18:30;19.25;;;10.50;;
42140;SDS011;27809;51.864;5.646;2023-08-12T04:20:55;24.60;;;12.65;;
42140;SDS011;27809;51.864;5.646;2023-08-12T04:23:21;23.15;;;11.32;;
42140;SDS011;27809;51.864;5.646;2023-08-12T04:25:47;21.55;;;11.57;;
42140;SDS011;27809;51.864;5.646;2023-08-12T04:28:13;20.58;;;11.90;;
42140;SDS011;27809;51.864;5.646;2023-08-12T04:30:43;19.70;;;10.93;;
42140;SDS011;27809;51.864;5.646;2023-08-12T04:33:10;21.55;;;10.82;;
42140;SDS011;27809;51.864;5.646;2023-08-12T04:35:36;29.23;;;12.20;;
42140;SDS011;27809;51.864;5.646;2023-08-12T04:38:02;21.75;;;10.75;;
42140;SDS011;27809;51.864;5.646;2023-08-12T04:40:28;18.25;;;11.55;;
42140;SDS011;27809;51.864;5.646;2023-08-12T04:42:54;19.73;;;10.30;;
42140;SDS011;27809;51.864;5.646;2023-08-12T04:45:19;25.95;;;12.13;;
42140;SDS011;27809;51.864;5.646;2023-08-12T04:47:45;21.88;;;11.23;;
42140;SDS011;27809;51.864;5.646;2023-08-12T04:50:10;17.00;;;10.65;;
42140;SDS011;27809;51.864;5.646;2023-08-12T04:52:36;22.65;;;11.20;;
42140;SDS011;27809;51.864;5.646;2023-08-12T04:55:01;19.08;;;10.00;;
42140;SDS011;27809;51.864;5.646;2023-08-12T04:57:28;20.58;;;11.60;;
42140;SDS011;27809;51.864;5.646;2023-08-12T04:59:53;19.20;;;10.93;;
42140;SDS011;27809;51.864;5.646;2023-08-12T05:02:20;21.00;;;11.77;;
42140;SDS011;27809;51.864;5.646;2023-08-12T05:04:49;23.10;;;11.38;;
42140;SDS011;27809;51.864;5.646;2023-08-12T05:07:15;21.45;;;11.30;;
42140;SDS011;27809;51.864;5.646;2023-08-12T05:09:41;17.30;;;10.40;;
42140;SDS011;27809;51.864;5.646;2023-08-12T05:12:10;19.95;;;11.15;;
42140;SDS011;27809;51.864;5.646;2023-08-12T05:14:37;18.83;;;10.23;;
42140;SDS011;27809;51.864;5.646;2023-08-12T05:17:03;20.60;;;11.52;;
42140;SDS011;27809;51.864;5.646;2023-08-12T05:19:28;21.63;;;10.65;;
42140;SDS011;27809;51.864;5.646;2023-08-12T05:21:54;18.45;;;12.02;;
42140;SDS011;27809;51.864;5.646;2023-08-12T05:24:19;20.42;;;10.02;;
42140;SDS011;27809;51.864;5.646;2023-08-12T05:26:45;20.50;;;12.52;;
42140;SDS011;27809;51.864;5.646;2023-08-12T05:29:10;22.65;;;10.98;;
42140;SDS011;27809;51.864;5.646;2023-08-12T05:31:36;18.42;;;10.40;;
42140;SDS011;27809;51.864;5.646;2023-08-12T05:34:01;22.88;;;11.02;;
42140;SDS011;27809;51.864;5.646;2023-08-12T05:36:27;25.25;;;10.70;;
42140;SDS011;27809;51.864;5.646;2023-08-12T05:38:53;20.75;;;11.18;;
42140;SDS011;27809;51.864;5.646;2023-08-12T05:41:19;17.33;;;9.48;;
42140;SDS011;27809;51.864;5.646;2023-08-12T05:43:45;19.05;;;8.88;;
42140;SDS011;27809;51.864;5.646;2023-08-12T05:46:10;19.30;;;9.75;;
42140;SDS011;27809;51.864;5.646;2023-08-12T05:48:36;15.43;;;6.90;;
42140;SDS011;27809;51.864;5.646;2023-08-12T05:51:01;25.33;;;6.30;;
42140;SDS011;27809;51.864;5.646;2023-08-12T05:53:27;11.43;;;4.40;;
42140;SDS011;27809;51.864;5.646;2023-08-12T05:55:52;9.73;;;5.45;;
42140;SDS011;27809;51.864;5.646;2023-08-12T05:58:18;9.13;;;1.60;;
42140;SDS011;27809;51.864;5.646;2023-08-12T06:00:43;6.45;;;1.73;;
42140;SDS011;27809;51.864;5.646;2023-08-12T06:03:10;4.45;;;1.77;;
42140;SDS011;27809;51.864;5.646;2023-08-12T06:05:37;3.25;;;1.95;;
42140;SDS011;27809;51.864;5.646;2023-08-12T06:08:02;2.13;;;1.08;;
42140;SDS011;27809;51.864;5.646;2023-08-12T06:10:28;4.55;;;1.88;;
42140;SDS011;27809;51.864;5.646;2023-08-12T06:12:54;8.10;;;2.75;;
42140;SDS011;27809;51.864;5.646;2023-08-12T06:15:19;3.00;;;1.38;;
42140;SDS011;27809;51.864;5.646;2023-08-12T06:17:45;7.32;;;2.20;;
42140;SDS011;27809;51.864;5.646;2023-08-12T06:20:10;8.15;;;2.50;;
42140;SDS011;27809;51.864;5.646;2023-08-12T06:22:36;4.38;;;2.00;;
42140;SDS011;27809;51.864;5.646;2023-08-12T06:25:02;4.18;;;2.22;;
42140;SDS011;27809;51.864;5.646;2023-08-12T06:27:28;7.85;;;1.55;;
42140;SDS011;27809;51.864;5.646;2023-08-12T06:29:53;4.50;;;1.17;;
42140;SDS011;27809;51.864;5.646;2023-08-12T06:32:19;4.00;;;1.80;;
42140;SDS011;27809;51.864;5.646;2023-08-12T06:34:44;3.30;;;1.35;;
42140;SDS011;27809;51.864;5.646;2023-08-12T06:37:10;4.45;;;1.83;;
42140;SDS011;27809;51.864;5.646;2023-08-12T06:39:35;8.85;;;1.83;;
42140;SDS011;27809;51.864;5.646;2023-08-12T06:42:01;6.55;;;1.23;;
42140;SDS011;27809;51.864;5.646;2023-08-12T06:44:28;4.50;;;1.77;;
42140;SDS011;27809;51.864;5.646;2023-08-12T06:46:54;2.90;;;1.30;;
42140;SDS011;27809;51.864;5.646;2023-08-12T06:49:19;4.20;;;1.65;;
42140;SDS011;27809;51.864;5.646;2023-08-12T06:51:44;3.92;;;2.38;;
42140;SDS011;27809;51.864;5.646;2023-08-12T06:54:10;2.72;;;1.50;;
42140;SDS011;27809;51.864;5.646;2023-08-12T06:56:35;4.53;;;1.98;;
42140;SDS011;27809;51.864;5.646;2023-08-12T06:59:01;7.15;;;1.70;;
42140;SDS011;27809;51.864;5.646;2023-08-12T07:01:26;3.78;;;1.67;;
42140;SDS011;27809;51.864;5.646;2023-08-12T07:03:52;3.00;;;1.35;;
42140;SDS011;27809;51.864;5.646;2023-08-12T07:06:17;3.85;;;1.83;;
42140;SDS011;27809;51.864;5.646;2023-08-12T07:08:43;2.92;;;0.98;;
42140;SDS011;27809;51.864;5.646;2023-08-12T07:11:08;2.08;;;1.13;;
42140;SDS011;27809;51.864;5.646;2023-08-12T07:13:34;3.00;;;1.02;;
42140;SDS011;27809;51.864;5.646;2023-08-12T07:16:00;2.70;;;1.38;;
42140;SDS011;27809;51.864;5.646;2023-08-12T07:18:25;5.53;;;1.13;;
42140;SDS011;27809;51.864;5.646;2023-08-12T07:20:51;3.85;;;1.20;;
42140;SDS011;27809;51.864;5.646;2023-08-12T07:23:16;3.88;;;2.10;;
42140;SDS011;27809;51.864;5.646;2023-08-12T07:25:42;6.50;;;2.25;;
42140;SDS011;27809;51.864;5.646;2023-08-12T07:28:07;5.35;;;2.60;;
42140;SDS011;27809;51.864;5.646;2023-08-12T07:30:34;4.65;;;2.42;;
42140;SDS011;27809;51.864;5.646;2023-08-12T07:33:01;4.55;;;2.10;;
42140;SDS011;27809;51.864;5.646;2023-08-12T07:35:26;4.82;;;1.98;;
42140;SDS011;27809;51.864;5.646;2023-08-12T07:37:52;6.80;;;2.25;;
42140;SDS011;27809;51.864;5.646;2023-08-12T07:40:17;3.85;;;2.20;;
42140;SDS011;27809;51.864;5.646;2023-08-12T07:42:43;5.03;;;1.90;;
42140;SDS011;27809;51.864;5.646;2023-08-12T07:45:08;8.13;;;2.72;;
42140;SDS011;27809;51.864;5.646;2023-08-12T07:47:34;3.38;;;2.20;;
42140;SDS011;27809;51.864;5.646;2023-08-12T07:50:00;4.95;;;2.65;;
42140;SDS011;27809;51.864;5.646;2023-08-12T07:52:25;4.75;;;2.60;;
42140;SDS011;27809;51.864;5.646;2023-08-12T07:54:51;6.05;;;3.00;;
42140;SDS011;27809;51.864;5.646;2023-08-12T07:57:16;2.58;;;1.60;;
42140;SDS011;27809;51.864;5.646;2023-08-12T07:59:42;2.15;;;1.02;;
42140;SDS011;27809;51.864;5.646;2023-08-12T08:02:07;3.83;;;1.63;;
42140;SDS011;27809;51.864;5.646;2023-08-12T08:04:34;4.82;;;1.45;;
42140;SDS011;27809;51.864;5.646;2023-08-12T08:07:00;1.55;;;1.10;;
42140;SDS011;27809;51.864;5.646;2023-08-12T08:09:25;2.13;;;0.80;;
42140;SDS011;27809;51.864;5.646;2023-08-12T08:11:51;2.42;;;0.75;;
42140;SDS011;27809;51.864;5.646;2023-08-12T08:14:16;3.35;;;0.90;;
42140;SDS011;27809;51.864;5.646;2023-08-12T08:16:42;2.97;;;1.13;;
42140;SDS011;27809;51.864;5.646;2023-08-12T08:19:07;1.13;;;0.57;;
42140;SDS011;27809;51.864;5.646;2023-08-12T08:21:34;3.75;;;1.00;;
42140;SDS011;27809;51.864;5.646;2023-08-12T08:24:00;1.02;;;0.40;;
42140;SDS011;27809;51.864;5.646;2023-08-12T08:26:26;1.10;;;0.60;;
42140;SDS011;27809;51.864;5.646;2023-08-12T08:28:51;1.23;;;0.50;;
42140;SDS011;27809;51.864;5.646;2023-08-12T08:31:17;3.35;;;1.00;;
42140;SDS011;27809;51.864;5.646;2023-08-12T08:33:43;1.30;;;0.70;;
42140;SDS011;27809;51.864;5.646;2023-08-12T08:36:08;0.90;;;0.50;;
42140;SDS011;27809;51.864;5.646;2023-08-12T08:38:34;1.73;;;0.90;;
42140;SDS011;27809;51.864;5.646;2023-08-12T08:40:59;1.25;;;0.60;;
42140;SDS011;27809;51.864;5.646;2023-08-12T08:43:26;1.77;;;0.60;;
42140;SDS011;27809;51.864;5.646;2023-08-12T08:45:53;12.35;;;1.58;;
42140;SDS011;27809;51.864;5.646;2023-08-12T08:48:20;3.38;;;0.80;;
42140;SDS011;27809;51.864;5.646;2023-08-12T08:50:46;0.90;;;0.47;;
42140;SDS011;27809;51.864;5.646;2023-08-12T08:53:13;1.80;;;1.13;;
42140;SDS011;27809;51.864;5.646;2023-08-12T08:55:41;1.10;;;0.65;;
42140;SDS011;27809;51.864;5.646;2023-08-12T08:58:07;1.48;;;1.13;;
42140;SDS011;27809;51.864;5.646;2023-08-12T09:00:32;1.25;;;0.80;;
42140;SDS011;27809;51.864;5.646;2023-08-12T09:02:58;1.15;;;0.73;;
42140;SDS011;27809;51.864;5.646;2023-08-12T09:05:24;1.52;;;1.10;;
42140;SDS011;27809;51.864;5.646;2023-08-12T09:07:50;0.70;;;0.60;;
42140;SDS011;27809;51.864;5.646;2023-08-12T09:10:17;1.25;;;0.50;;
42140;SDS011;27809;51.864;5.646;2023-08-12T09:12:46;3.28;;;0.40;;
42140;SDS011;27809;51.864;5.646;2023-08-12T09:15:12;1.88;;;0.40;;
42140;SDS011;27809;51.864;5.646;2023-08-12T09:17:38;0.63;;;0.35;;
42140;SDS011;27809;51.864;5.646;2023-08-12T09:20:03;1.00;;;0.30;;
42140;SDS011;27809;51.864;5.646;2023-08-12T09:22:36;0.93;;;0.40;;
42140;SDS011;27809;51.864;5.646;2023-08-12T09:25:02;0.50;;;0.20;;
42140;SDS011;27809;51.864;5.646;2023-08-12T09:27:30;2.80;;;0.43;;
42140;SDS011;27809;51.864;5.646;2023-08-12T09:29:56;1.42;;;0.40;;
42140;SDS011;27809;51.864;5.646;2023-08-12T09:32:23;1.17;;;0.30;;
42140;SDS011;27809;51.864;5.646;2023-08-12T09:34:50;1.88;;;0.30;;
42140;SDS011;27809;51.864;5.646;2023-08-12T09:37:20;0.85;;;0.20;;
42140;SDS011;27809;51.864;5.646;2023-08-12T09:39:46;1.20;;;0.52;;
42140;SDS011;27809;51.864;5.646;2023-08-12T09:42:13;0.88;;;0.45;;
42140;SDS011;27809;51.864;5.646;2023-08-12T09:44:40;0.75;;;0.55;;
42140;SDS011;27809;51.864;5.646;2023-08-12T09:47:06;0.90;;;0.30;;
42140;SDS011;27809;51.864;5.646;2023-08-12T09:49:33;0.73;;;0.30;;
42140;SDS011;27809;51.864;5.646;2023-08-12T09:52:00;1.02;;;0.30;;
42140;SDS011;27809;51.864;5.646;2023-08-12T09:54:27;1.48;;;0.40;;
42140;SDS011;27809;51.864;5.646;2023-08-12T09:56:54;1.05;;;0.40;;
42140;SDS011;27809;51.864;5.646;2023-08-12T09:59:24;1.38;;;0.20;;
42140;SDS011;27809;51.864;5.646;2023-08-12T10:01:52;0.73;;;0.40;;
42140;SDS011;27809;51.864;5.646;2023-08-12T10:04:19;0.47;;;0.30;;
42140;SDS011;27809;51.864;5.646;2023-08-12T10:06:47;0.60;;;0.28;;
42140;SDS011;27809;51.864;5.646;2023-08-12T10:09:14;2.42;;;0.68;;
42140;SDS011;27809;51.864;5.646;2023-08-12T10:11:41;0.75;;;0.35;;
42140;SDS011;27809;51.864;5.646;2023-08-12T10:14:08;0.70;;;0.28;;
42140;SDS011;27809;51.864;5.646;2023-08-12T10:16:35;1.52;;;0.80;;
42140;SDS011;27809;51.864;5.646;2023-08-12T10:19:02;0.98;;;0.30;;
42140;SDS011;27809;51.864;5.646;2023-08-12T10:21:29;0.90;;;0.30;;
42140;SDS011;27809;51.864;5.646;2023-08-12T10:23:56;5.68;;;0.63;;
42140;SDS011;27809;51.864;5.646;2023-08-12T10:26:22;0.88;;;0.30;;
42140;SDS011;27809;51.864;5.646;2023-08-12T10:28:49;1.27;;;0.55;;
42140;SDS011;27809;51.864;5.646;2023-08-12T10:31:15;1.77;;;0.45;;
42140;SDS011;27809;51.864;5.646;2023-08-12T10:33:41;2.20;;;1.13;;
42140;SDS011;27809;51.864;5.646;2023-08-12T10:36:08;0.65;;;0.30;;
42140;SDS011;27809;51.864;5.646;2023-08-12T10:38:34;2.15;;;0.32;;
42140;SDS011;27809;51.864;5.646;2023-08-12T10:41:18;1.65;;;0.45;;
42140;SDS011;27809;51.864;5.646;2023-08-12T10:46:23;3.13;;;0.70;;
42140;SDS011;27809;51.864;5.646;2023-08-12T10:54:25;4.43;;;0.75;;
42140;SDS011;27809;51.864;5.646;2023-08-12T11:02:17;5.85;;;0.75;;
42140;SDS011;27809;51.864;5.646;2023-08-12T11:04:56;2.30;;;0.40;;
42140;SDS011;27809;51.864;5.646;2023-08-12T11:07:33;1.90;;;0.30;;
42140;SDS011;27809;51.864;5.646;2023-08-12T11:10:03;5.22;;;1.48;;
42140;SDS011;27809;51.864;5.646;2023-08-12T11:12:34;2.17;;;0.30;;
42140;SDS011;27809;51.864;5.646;2023-08-12T11:15:00;4.75;;;0.70;;
42140;SDS011;27809;51.864;5.646;2023-08-12T11:17:29;2.35;;;0.63;;
42140;SDS011;27809;51.864;5.646;2023-08-12T11:20:13;2.72;;;0.50;;
42140;SDS011;27809;51.864;5.646;2023-08-12T11:22:39;1.50;;;0.45;;
42140;SDS011;27809;51.864;5.646;2023-08-12T11:25:08;2.72;;;0.30;;
42140;SDS011;27809;51.864;5.646;2023-08-12T11:30:08;3.50;;;0.77;;
42140;SDS011;27809;51.864;5.646;2023-08-12T11:32:35;16.85;;;1.85;;
42140;SDS011;27809;51.864;5.646;2023-08-12T11:35:05;4.22;;;0.35;;
42140;SDS011;27809;51.864;5.646;2023-08-12T11:37:32;3.30;;;0.82;;
42140;SDS011;27809;51.864;5.646;2023-08-12T11:39:58;4.95;;;0.40;;
42140;SDS011;27809;51.864;5.646;2023-08-12T11:42:23;2.28;;;0.30;;
42140;SDS011;27809;51.864;5.646;2023-08-12T11:44:49;3.65;;;0.40;;
42140;SDS011;27809;51.864;5.646;2023-08-12T11:47:14;4.60;;;0.50;;
42140;SDS011;27809;51.864;5.646;2023-08-12T11:49:40;3.38;;;1.20;;
42140;SDS011;27809;51.864;5.646;2023-08-12T11:52:05;5.65;;;1.10;;
42140;SDS011;27809;51.864;5.646;2023-08-12T11:54:33;3.60;;;0.43;;
42140;SDS011;27809;51.864;5.646;2023-08-12T11:56:59;6.28;;;0.50;;
42140;SDS011;27809;51.864;5.646;2023-08-12T11:59:25;6.60;;;0.55;;
42140;SDS011;27809;51.864;5.646;2023-08-12T12:01:51;4.05;;;0.82;;
42140;SDS011;27809;51.864;5.646;2023-08-12T12:04:17;7.00;;;0.95;;
42140;SDS011;27809;51.864;5.646;2023-08-12T12:06:45;4.20;;;0.30;;
42140;SDS011;27809;51.864;5.646;2023-08-12T12:09:11;1.15;;;0.10;;
42140;SDS011;27809;51.864;5.646;2023-08-12T12:11:38;1.90;;;0.55;;
42140;SDS011;27809;51.864;5.646;2023-08-12T12:14:04;6.38;;;0.40;;
42140;SDS011;27809;51.864;5.646;2023-08-12T12:16:40;5.22;;;0.40;;
42140;SDS011;27809;51.864;5.646;2023-08-12T12:19:17;2.58;;;0.82;;
42140;SDS011;27809;51.864;5.646;2023-08-12T12:21:45;4.07;;;0.57;;
42140;SDS011;27809;51.864;5.646;2023-08-12T12:24:11;4.93;;;1.23;;
42140;SDS011;27809;51.864;5.646;2023-08-12T12:26:37;3.72;;;0.40;;
42140;SDS011;27809;51.864;5.646;2023-08-12T12:29:03;2.05;;;0.30;;
42140;SDS011;27809;51.864;5.646;2023-08-12T12:31:34;4.07;;;0.70;;
42140;SDS011;27809;51.864;5.646;2023-08-12T12:34:01;5.18;;;0.30;;
42140;SDS011;27809;51.864;5.646;2023-08-12T12:36:28;1.65;;;0.35;;
42140;SDS011;27809;51.864;5.646;2023-08-12T12:38:54;0.65;;;0.25;;
42140;SDS011;27809;51.864;5.646;2023-08-12T12:41:19;3.85;;;1.30;;
42140;SDS011;27809;51.864;5.646;2023-08-12T12:43:45;3.33;;;0.30;;
42140;SDS011;27809;51.864;5.646;2023-08-12T12:46:11;6.80;;;1.25;;
42140;SDS011;27809;51.864;5.646;2023-08-12T12:48:36;3.47;;;0.30;;
42140;SDS011;27809;51.864;5.646;2023-08-12T12:51:02;1.65;;;0.55;;
42140;SDS011;27809;51.864;5.646;2023-08-12T12:53:27;4.13;;;0.93;;
42140;SDS011;27809;51.864;5.646;2023-08-12T12:55:53;4.03;;;0.60;;
42140;SDS011;27809;51.864;5.646;2023-08-12T12:58:18;1.95;;;0.30;;
42140;SDS011;27809;51.864;5.646;2023-08-12T13:00:47;2.80;;;0.32;;
42140;SDS011;27809;51.864;5.646;2023-08-12T13:03:12;3.72;;;0.30;;
42140;SDS011;27809;51.864;5.646;2023-08-12T13:05:38;3.53;;;0.90;;
42140;SDS011;27809;51.864;5.646;2023-08-12T13:08:03;4.65;;;0.50;;
42140;SDS011;27809;51.864;5.646;2023-08-12T13:10:29;2.50;;;0.65;;
42140;SDS011;27809;51.864;5.646;2023-08-12T13:12:55;2.55;;;0.38;;
42140;SDS011;27809;51.864;5.646;2023-08-12T13:15:20;4.32;;;0.50;;
42140;SDS011;27809;51.864;5.646;2023-08-12T13:17:46;4.22;;;0.43;;
42140;SDS011;27809;51.864;5.646;2023-08-12T13:20:12;3.30;;;0.55;;
42140;SDS011;27809;51.864;5.646;2023-08-12T13:22:37;2.58;;;1.10;;
42140;SDS011;27809;51.864;5.646;2023-08-12T13:25:03;3.22;;;0.70;;
42140;SDS011;27809;51.864;5.646;2023-08-12T13:27:28;4.53;;;0.55;;
42140;SDS011;27809;51.864;5.646;2023-08-12T13:29:54;2.78;;;0.75;;
42140;SDS011;27809;51.864;5.646;2023-08-12T13:32:19;1.48;;;0.50;;
42140;SDS011;27809;51.864;5.646;2023-08-12T13:34:45;1.25;;;0.30;;
42140;SDS011;27809;51.864;5.646;2023-08-12T13:37:12;4.00;;;0.57;;
42140;SDS011;27809;51.864;5.646;2023-08-12T13:39:38;4.85;;;0.45;;
42140;SDS011;27809;51.864;5.646;2023-08-12T13:42:03;2.88;;;0.40;;
42140;SDS011;27809;51.864;5.646;2023-08-12T13:44:29;3.70;;;0.22;;
42140;SDS011;27809;51.864;5.646;2023-08-12T13:46:54;3.53;;;0.70;;
42140;SDS011;27809;51.864;5.646;2023-08-12T13:49:20;4.75;;;1.15;;
42140;SDS011;27809;51.864;5.646;2023-08-12T13:51:45;3.65;;;0.68;;
42140;SDS011;27809;51.864;5.646;2023-08-12T13:54:11;4.00;;;0.40;;
42140;SDS011;27809;51.864;5.646;2023-08-12T13:56:36;2.17;;;0.30;;
42140;SDS011;27809;51.864;5.646;2023-08-12T13:59:02;4.63;;;0.60;;
42140;SDS011;27809;51.864;5.646;2023-08-12T14:01:28;3.25;;;0.60;;
42140;SDS011;27809;51.864;5.646;2023-08-12T14:03:53;5.55;;;1.05;;
42140;SDS011;27809;51.864;5.646;2023-08-12T14:06:19;5.10;;;0.57;;
42140;SDS011;27809;51.864;5.646;2023-08-12T14:08:44;2.78;;;0.63;;
42140;SDS011;27809;51.864;5.646;2023-08-12T14:11:10;4.22;;;1.70;;
42140;SDS011;27809;51.864;5.646;2023-08-12T14:13:35;4.15;;;0.60;;
42140;SDS011;27809;51.864;5.646;2023-08-12T14:16:01;8.35;;;1.20;;
42140;SDS011;27809;51.864;5.646;2023-08-12T14:18:26;4.10;;;0.55;;
42140;SDS011;27809;51.864;5.646;2023-08-12T14:20:52;7.30;;;0.70;;
42140;SDS011;27809;51.864;5.646;2023-08-12T14:23:17;3.58;;;1.15;;
42140;SDS011;27809;51.864;5.646;2023-08-12T14:25:43;4.43;;;0.80;;
42140;SDS011;27809;51.864;5.646;2023-08-12T14:28:08;43.08;;;13.02;;
42140;SDS011;27809;51.864;5.646;2023-08-12T14:30:34;357.05;;;108.47;;
42140;SDS011;27809;51.864;5.646;2023-08-12T14:32:59;316.63;;;128.20;;
42140;SDS011;27809;51.864;5.646;2023-08-12T14:35:25;702.67;;;311.30;;
42140;SDS011;27809;51.864;5.646;2023-08-12T14:37:50;670.00;;;300.55;;
42140;SDS011;27809;51.864;5.646;2023-08-12T14:40:16;519.45;;;227.52;;
42140;SDS011;27809;51.864;5.646;2023-08-12T14:42:41;406.00;;;160.00;;
42140;SDS011;27809;51.864;5.646;2023-08-12T14:45:07;364.35;;;136.80;;
42140;SDS011;27809;51.864;5.646;2023-08-12T14:47:33;316.20;;;120.15;;
42140;SDS011;27809;51.864;5.646;2023-08-12T14:49:58;169.55;;;63.90;;